createdAt,value
2022-12-13T00:01:47.704Z,55.10
2022-12-13T00:04:16.355Z,56.90
2022-12-13T00:09:14.921Z,47.50
2022-12-13T00:11:43.167Z,55.20
2022-12-13T00:14:14.162Z,53.80
2022-12-13T00:16:47.112Z,48.00
2022-12-13T00:19:16.743Z,48.00
2022-12-13T00:21:45.628Z,48.10
2022-12-13T00:24:14.837Z,48.10
2022-12-13T00:26:43.676Z,48.00
2022-12-13T00:29:14.388Z,51.60
2022-12-13T00:34:31.587Z,48.10
2022-12-13T00:37:00.334Z,48.20
2022-12-13T00:39:28.699Z,52.80
2022-12-13T00:41:57.035Z,54.00
2022-12-13T00:44:26.874Z,52.60
2022-12-13T00:46:55.093Z,48.10
2022-12-13T00:49:23.413Z,52.90
2022-12-13T00:51:51.732Z,53.80
2022-12-13T00:54:20.113Z,54.20
2022-12-13T00:56:48.487Z,47.90
2022-12-13T00:59:16.897Z,53.50
2022-12-13T01:01:46.725Z,47.90
2022-12-13T01:04:15.011Z,47.80
2022-12-13T01:06:45.175Z,47.80
2022-12-13T01:09:17.174Z,47.80
2022-12-13T01:11:45.995Z,47.80
2022-12-13T01:14:14.547Z,47.70
2022-12-13T01:16:42.830Z,47.80
2022-12-13T01:19:12.438Z,47.70
2022-12-13T01:21:40.656Z,47.50
2022-12-13T01:24:09.418Z,47.70
2022-12-13T01:26:37.600Z,47.70
2022-12-13T01:29:05.948Z,47.60
2022-12-13T01:31:34.217Z,47.60
2022-12-13T01:34:10.299Z,47.60
2022-12-13T01:36:41.501Z,47.60
2022-12-13T01:39:15.140Z,47.50
2022-12-13T01:41:45.335Z,47.50
2022-12-13T01:44:46.899Z,47.50
2022-12-13T01:47:19.463Z,47.50
2022-12-13T01:49:47.928Z,47.30
2022-12-13T01:52:18.688Z,47.50
2022-12-13T01:54:50.159Z,47.50
2022-12-13T01:57:20.774Z,47.30
2022-12-13T01:59:50.377Z,47.30
2022-12-13T02:02:18.602Z,47.30
2022-12-13T02:04:54.543Z,47.40
2022-12-13T02:07:30.652Z,47.30
2022-12-13T02:10:01.295Z,47.20
2022-12-13T02:12:32.892Z,47.10
2022-12-13T02:15:03.958Z,47.10
2022-12-13T02:17:49.308Z,47.10
2022-12-13T02:20:47.177Z,47.10
2022-12-13T02:23:32.849Z,50.80
2022-12-13T02:26:30.410Z,47.00
2022-12-13T02:29:12.620Z,47.10
2022-12-13T02:32:01.404Z,47.00
2022-12-13T02:34:36.812Z,47.00
2022-12-13T02:37:18.207Z,47.00
2022-12-13T02:39:53.243Z,47.00
2022-12-13T02:42:26.705Z,47.00
2022-12-13T02:44:59.078Z,47.00
2022-12-13T02:47:30.988Z,47.00
2022-12-13T02:50:03.502Z,46.80
2022-12-13T02:52:33.835Z,46.80
2022-12-13T02:55:07.202Z,46.80
2022-12-13T02:57:37.780Z,46.90
2022-12-13T03:00:08.936Z,46.80
2022-12-13T03:02:51.305Z,46.80
2022-12-13T03:05:46.015Z,46.80
2022-12-13T03:08:22.939Z,46.80
2022-12-13T03:11:00.690Z,46.70
2022-12-13T03:13:37.418Z,46.80
2022-12-13T03:16:22.820Z,46.70
2022-12-13T03:18:55.030Z,46.80
2022-12-13T03:21:23.478Z,46.70
2022-12-13T03:23:51.723Z,46.70
2022-12-13T03:26:23.190Z,46.70
2022-12-13T03:28:51.997Z,46.50
2022-12-13T03:31:20.564Z,46.50
2022-12-13T03:33:49.093Z,46.50
2022-12-13T03:36:19.969Z,46.60
2022-12-13T03:38:52.333Z,46.40
2022-12-13T03:41:24.423Z,46.40
2022-12-13T03:43:52.727Z,46.40
2022-12-13T03:46:20.991Z,46.50
2022-12-13T03:48:49.218Z,46.40
2022-12-13T03:51:18.920Z,46.30
2022-12-13T03:53:47.148Z,46.40
2022-12-13T03:56:15.558Z,46.40
2022-12-13T03:58:43.776Z,46.50
2022-12-13T04:01:14.681Z,46.30
2022-12-13T04:03:45.905Z,46.40
2022-12-13T04:06:22.757Z,46.40
2022-12-13T04:08:53.377Z,46.30
2022-12-13T04:11:42.977Z,46.30
2022-12-13T04:14:12.258Z,46.30
2022-12-13T04:16:50.188Z,46.30
2022-12-13T04:19:23.437Z,46.30
2022-12-13T04:21:54.408Z,46.10
2022-12-13T04:24:31.664Z,46.30
2022-12-13T04:27:00.804Z,46.30
2022-12-13T04:29:34.107Z,46.20
2022-12-13T04:32:03.926Z,46.20
2022-12-13T04:34:37.298Z,46.30
2022-12-13T04:37:06.090Z,46.10
2022-12-13T04:39:35.725Z,46.00
2022-12-13T04:42:05.683Z,46.10
2022-12-13T04:44:37.025Z,45.90
2022-12-13T04:47:06.425Z,46.10
2022-12-13T04:49:36.274Z,46.00
2022-12-13T04:52:04.899Z,46.00
2022-12-13T04:54:36.328Z,46.10
2022-12-13T04:57:07.892Z,46.10
2022-12-13T04:59:36.275Z,46.10
2022-12-13T05:02:05.935Z,46.10
2022-12-13T05:04:34.418Z,46.10
2022-12-13T05:07:02.919Z,46.10
2022-12-13T05:09:31.188Z,46.00
2022-12-13T05:12:01.791Z,46.10
2022-12-13T05:14:31.776Z,46.00
2022-12-13T05:17:00.366Z,46.10
2022-12-13T05:19:31.240Z,45.90
2022-12-13T05:22:01.403Z,45.90
2022-12-13T05:24:30.884Z,45.90
2022-12-13T05:26:59.469Z,45.80
2022-12-13T05:29:28.476Z,45.80
2022-12-13T05:31:58.231Z,45.60
2022-12-13T05:34:26.815Z,45.10
2022-12-13T05:36:55.023Z,42.70
2022-12-13T05:39:28.852Z,43.10
2022-12-13T05:42:02.388Z,43.50
2022-12-13T05:44:32.640Z,43.50
2022-12-13T05:47:02.984Z,43.70
2022-12-13T05:49:32.287Z,43.60
2022-12-13T05:52:00.841Z,43.70
2022-12-13T05:54:29.065Z,43.60
2022-12-13T05:56:57.533Z,43.50
2022-12-13T05:59:25.788Z,43.50
2022-12-13T06:01:54.031Z,43.60
2022-12-13T06:04:23.785Z,43.20
2022-12-13T06:06:52.853Z,43.30
2022-12-13T06:09:21.751Z,43.40
2022-12-13T06:11:50.255Z,43.40
2022-12-13T06:14:22.154Z,43.30
2022-12-13T06:16:51.927Z,43.30
2022-12-13T06:19:20.474Z,43.30
2022-12-13T06:21:50.499Z,43.30
2022-12-13T06:24:20.052Z,43.20
2022-12-13T06:26:49.135Z,43.40
2022-12-13T06:29:24.302Z,43.30
2022-12-13T06:32:01.968Z,43.20
2022-12-13T06:34:33.539Z,43.10
2022-12-13T06:37:04.078Z,43.20
2022-12-13T06:39:33.632Z,43.10
2022-12-13T06:42:03.327Z,43.10
2022-12-13T06:44:31.877Z,43.10
2022-12-13T06:47:10.743Z,43.00
2022-12-13T06:49:42.844Z,42.90
2022-12-13T06:52:14.176Z,42.90
2022-12-13T06:54:43.589Z,42.80
2022-12-13T06:57:12.226Z,42.80
2022-12-13T06:59:41.476Z,42.90
2022-12-13T07:02:24.560Z,42.80
2022-12-13T07:04:54.084Z,42.90
2022-12-13T07:07:24.639Z,42.90
2022-12-13T07:09:53.203Z,42.90
2022-12-13T07:12:21.772Z,42.80
2022-12-13T07:14:50.070Z,42.80
2022-12-13T07:17:32.878Z,42.80
2022-12-13T07:20:01.899Z,42.80
2022-12-13T07:22:34.682Z,42.90
2022-12-13T07:25:04.883Z,42.80
2022-12-13T07:27:33.288Z,42.80
2022-12-13T07:30:01.760Z,42.90
2022-12-13T07:32:29.978Z,42.90
2022-12-13T07:34:58.195Z,43.50
2022-12-13T07:37:30.470Z,42.90
2022-12-13T07:40:04.374Z,42.90
2022-12-13T07:42:33.042Z,42.90
2022-12-13T07:45:01.316Z,47.20
2022-12-13T07:47:31.104Z,42.90
2022-12-13T07:49:59.351Z,43.50
2022-12-13T07:52:29.699Z,42.90
2022-12-13T07:54:58.026Z,42.90
2022-12-13T07:57:27.900Z,42.90
2022-12-13T07:59:56.205Z,42.90
2022-12-13T08:02:24.398Z,42.90
2022-12-13T08:04:54.839Z,42.90
2022-12-13T08:07:24.168Z,46.20
2022-12-13T08:09:53.242Z,42.90
2022-12-13T08:12:22.741Z,43.00
2022-12-13T08:14:53.026Z,43.00
2022-12-13T08:17:21.982Z,43.00
2022-12-13T08:19:50.348Z,42.90
2022-12-13T08:22:24.241Z,42.70
2022-12-13T08:24:53.053Z,42.70
2022-12-13T08:27:21.293Z,42.60
2022-12-13T08:29:49.545Z,42.60
2022-12-13T08:32:19.279Z,42.60
2022-12-13T08:34:47.548Z,42.40
2022-12-13T08:37:15.784Z,42.40
2022-12-13T08:39:44.669Z,42.60
2022-12-13T08:42:18.330Z,42.40
2022-12-13T08:44:50.004Z,42.30
2022-12-13T08:47:23.230Z,42.40
2022-12-13T08:49:52.314Z,42.30
2022-12-13T08:52:22.173Z,41.60
2022-12-13T08:54:50.443Z,41.10
2022-12-13T08:57:18.658Z,41.50
2022-12-13T08:59:46.885Z,41.40
2022-12-13T09:02:15.766Z,41.30
2022-12-13T09:04:45.480Z,41.50
2022-12-13T09:07:13.739Z,41.40
2022-12-13T09:09:41.984Z,41.50
2022-12-13T09:12:29.376Z,41.40
2022-12-13T09:15:01.397Z,41.20
2022-12-13T09:17:36.702Z,41.20
2022-12-13T09:20:29.508Z,41.10
2022-12-13T09:23:02.087Z,41.00
2022-12-13T09:25:36.723Z,41.00
2022-12-13T09:28:07.892Z,40.90
2022-12-13T09:30:36.470Z,45.30
2022-12-13T09:33:28.601Z,40.70
2022-12-13T09:35:54.575Z,40.80
2022-12-13T09:38:22.799Z,40.90
2022-12-13T09:40:58.541Z,42.90
2022-12-13T09:43:33.829Z,40.80
2022-12-13T09:46:22.924Z,40.80
2022-12-13T09:48:53.328Z,40.60
2022-12-13T09:51:43.711Z,40.80
2022-12-13T09:54:19.720Z,40.70
2022-12-13T09:56:54.604Z,40.60
2022-12-13T09:59:28.273Z,40.50
2022-12-13T10:01:57.072Z,40.40
2022-12-13T10:04:25.325Z,40.20
2022-12-13T10:06:56.131Z,40.00
2022-12-13T10:09:24.816Z,40.20
2022-12-13T10:11:55.851Z,39.90
2022-12-13T10:14:29.828Z,39.40
2022-12-13T10:17:01.408Z,39.50
2022-12-13T10:19:35.000Z,38.80
2022-12-13T10:22:09.508Z,38.30
2022-12-13T10:24:52.097Z,37.90
2022-12-13T10:27:22.579Z,37.90
2022-12-13T10:30:10.780Z,37.20
2022-12-13T10:32:49.144Z,37.20
2022-12-13T10:35:25.441Z,37.00
2022-12-13T10:37:56.477Z,36.70
2022-12-13T10:40:34.315Z,36.90
2022-12-13T10:43:12.430Z,36.40
2022-12-13T10:45:40.967Z,36.30
2022-12-13T10:48:21.460Z,35.60
2022-12-13T10:51:01.288Z,35.60
2022-12-13T10:53:35.219Z,35.60
2022-12-13T10:56:04.174Z,35.40
2022-12-13T10:58:41.731Z,35.10
2022-12-13T11:01:20.528Z,34.80
2022-12-13T11:04:01.802Z,34.70
2022-12-13T11:06:43.516Z,34.50
2022-12-13T11:09:22.674Z,34.60
2022-12-13T11:11:58.327Z,34.20
2022-12-13T11:14:31.796Z,33.70
2022-12-13T11:17:08.550Z,33.60
2022-12-13T11:19:41.095Z,33.70
2022-12-13T11:22:11.292Z,33.50
2022-12-13T11:24:43.505Z,33.40
2022-12-13T11:27:35.112Z,33.40
2022-12-13T11:30:13.695Z,33.60
2022-12-13T11:33:12.275Z,33.20
2022-12-13T11:35:56.066Z,32.90
2022-12-13T11:38:31.238Z,33.50
2022-12-13T11:41:07.496Z,33.50
2022-12-13T11:43:40.926Z,33.30
2022-12-13T11:46:18.831Z,33.30
2022-12-13T11:48:51.769Z,33.30
2022-12-13T11:51:27.880Z,33.00
2022-12-13T11:54:01.018Z,33.00
2022-12-13T11:56:38.729Z,33.30
2022-12-13T11:59:23.787Z,33.20
2022-12-13T12:02:04.899Z,33.00
2022-12-13T12:04:37.980Z,33.20
2022-12-13T12:07:31.977Z,32.80
2022-12-13T12:10:08.043Z,32.80
2022-12-13T12:12:39.326Z,32.70
2022-12-13T12:15:16.063Z,33.30
2022-12-13T12:17:45.338Z,33.30
2022-12-13T12:20:24.072Z,33.10
2022-12-13T12:23:01.447Z,33.00
2022-12-13T12:25:42.395Z,33.10
2022-12-13T12:28:24.253Z,32.90
2022-12-13T12:31:01.359Z,33.10
2022-12-13T12:33:45.427Z,33.10
2022-12-13T12:36:32.381Z,33.10
2022-12-13T12:39:27.040Z,33.40
2022-12-13T12:42:05.546Z,33.30
2022-12-13T12:44:43.755Z,32.90
2022-12-13T12:50:32.114Z,33.00
2022-12-13T12:53:19.035Z,33.10
2022-12-13T12:55:53.758Z,33.10
2022-12-13T12:58:29.268Z,33.20
2022-12-13T13:01:11.195Z,33.20
2022-12-13T13:03:42.707Z,32.90
2022-12-13T13:06:15.082Z,31.30
2022-12-13T13:08:53.367Z,30.70
2022-12-13T13:11:25.990Z,30.00
2022-12-13T13:14:08.303Z,30.00
2022-12-13T13:16:40.105Z,30.00
2022-12-13T13:19:43.860Z,30.50
2022-12-13T13:22:31.146Z,30.40
2022-12-13T13:25:15.454Z,30.70
2022-12-13T13:27:45.506Z,30.30
2022-12-13T13:30:20.375Z,29.30
2022-12-13T13:32:51.401Z,29.00
2022-12-13T13:35:48.124Z,29.40
2022-12-13T13:38:43.655Z,29.40
2022-12-13T13:41:44.803Z,29.60
2022-12-13T13:44:55.415Z,30.00
2022-12-13T13:47:40.245Z,30.10
2022-12-13T13:50:44.494Z,30.80
2022-12-13T13:53:49.133Z,31.20
2022-12-13T13:56:44.763Z,31.50
2022-12-13T14:00:00.196Z,32.00
2022-12-13T14:03:21.815Z,32.30
2022-12-13T14:06:28.540Z,32.90
2022-12-13T14:09:26.639Z,33.50
2022-12-13T14:12:33.112Z,33.60
2022-12-13T14:15:39.934Z,33.60
2022-12-13T14:18:55.468Z,33.90
2022-12-13T14:21:35.561Z,34.00
2022-12-13T14:24:18.275Z,34.50
2022-12-13T14:26:56.647Z,34.60
2022-12-13T14:29:29.046Z,34.90
2022-12-13T14:31:57.616Z,35.00
2022-12-13T14:34:27.799Z,35.30
2022-12-13T14:36:57.766Z,35.40
2022-12-13T14:39:29.596Z,35.70
2022-12-13T14:41:59.776Z,35.60
2022-12-13T14:44:30.159Z,35.70
2022-12-13T14:47:01.499Z,35.80
2022-12-13T14:49:32.865Z,35.90
2022-12-13T14:52:08.732Z,36.00
2022-12-13T14:54:45.650Z,36.10
2022-12-13T14:57:19.511Z,36.10
2022-12-13T14:59:50.478Z,36.20
2022-12-13T15:02:30.279Z,36.40
2022-12-13T15:05:02.121Z,36.40
2022-12-13T15:07:33.349Z,36.30
2022-12-13T15:10:05.185Z,36.50
2022-12-13T15:12:33.759Z,36.20
2022-12-13T15:15:04.158Z,36.10
2022-12-13T15:17:35.304Z,36.20
2022-12-13T15:20:22.075Z,36.10
2022-12-13T15:25:21.830Z,47.20
2022-12-13T15:27:53.299Z,36.40
2022-12-13T15:40:35.152Z,36.80
2022-12-13T15:50:37.240Z,37.00
2022-12-13T15:53:07.823Z,37.30
2022-12-13T15:55:38.493Z,37.20
2022-12-13T15:58:26.779Z,37.10
2022-12-13T16:03:27.427Z,37.30
2022-12-13T16:05:57.789Z,37.40
2022-12-13T16:08:27.526Z,37.90
2022-12-13T16:10:58.532Z,46.80
2022-12-13T16:13:28.567Z,37.60
2022-12-13T16:16:00.272Z,37.60
2022-12-13T16:18:44.633Z,37.70
2022-12-13T16:26:25.532Z,37.70
2022-12-13T16:31:23.784Z,37.70
2022-12-13T16:36:21.884Z,37.70
2022-12-13T16:38:50.761Z,46.80
2022-12-13T16:41:22.081Z,37.80
2022-12-13T16:43:55.980Z,37.90
2022-12-13T16:49:21.195Z,37.60
2022-12-13T16:54:19.764Z,37.50
2022-12-13T16:56:50.056Z,38.10
2022-12-13T16:59:20.419Z,38.30
2022-12-13T17:04:21.410Z,38.30
2022-12-13T17:06:50.967Z,38.30
2022-12-13T17:11:53.380Z,38.30
2022-12-13T17:29:25.917Z,40.80
2022-12-13T17:36:52.326Z,48.40
2022-12-13T17:44:26.234Z,39.10
2022-12-13T17:56:53.302Z,47.40
2022-12-13T17:59:22.006Z,49.00
2022-12-13T18:01:52.386Z,39.20
2022-12-13T18:19:15.963Z,49.10
2022-12-13T18:29:12.728Z,49.80
2022-12-13T18:36:40.577Z,39.20
2022-12-13T18:44:08.188Z,35.50
2022-12-13T18:46:38.226Z,36.10
2022-12-13T18:49:07.048Z,37.20
2022-12-13T18:54:05.654Z,37.60
2022-12-13T19:06:29.291Z,37.20
2022-12-13T19:08:59.049Z,37.10
2022-12-13T19:11:29.420Z,50.80
2022-12-13T19:13:58.115Z,37.00
2022-12-13T19:16:27.471Z,36.80
2022-12-13T19:26:29.327Z,36.90
2022-12-13T19:28:59.230Z,36.70
2022-12-13T19:31:31.824Z,36.80
2022-12-13T19:34:03.626Z,36.80
2022-12-13T19:36:32.530Z,36.90
2022-12-13T19:41:32.287Z,37.00
2022-12-13T19:44:03.707Z,37.00
2022-12-13T19:56:34.553Z,37.30
2022-12-13T20:06:29.709Z,50.30
2022-12-13T20:16:26.819Z,37.50
2022-12-13T20:18:56.827Z,39.30
2022-12-13T20:21:26.318Z,35.00
2022-12-13T20:23:55.964Z,37.40
2022-12-13T20:26:26.686Z,51.70
2022-12-13T20:28:57.732Z,37.40
2022-12-13T20:31:29.827Z,37.40
2022-12-13T20:33:59.801Z,37.30
2022-12-13T20:36:29.255Z,37.80
2022-12-13T20:38:59.833Z,37.20
2022-12-13T20:49:06.047Z,37.50
2022-12-13T20:51:36.263Z,37.30
2022-12-13T20:56:35.320Z,35.80
2022-12-13T20:59:06.085Z,36.40
2022-12-13T21:01:36.489Z,36.80
2022-12-13T21:04:06.895Z,36.90
2022-12-13T21:06:36.732Z,36.90
2022-12-13T21:09:06.405Z,52.40
2022-12-13T21:11:36.891Z,36.80
2022-12-13T21:16:45.116Z,36.70
2022-12-13T21:19:14.269Z,37.50
2022-12-13T21:29:11.061Z,36.80
2022-12-13T21:31:40.555Z,36.90
2022-12-13T21:36:39.273Z,36.90
2022-12-13T21:39:08.430Z,37.40
2022-12-13T21:47:10.213Z,37.10
2022-12-13T21:49:23.606Z,47.40
2022-12-13T22:02:19.003Z,37.50
2022-12-13T22:04:49.147Z,37.60
2022-12-13T22:07:19.162Z,37.60
2022-12-13T22:09:48.045Z,37.70
2022-12-13T22:12:22.798Z,46.80
2022-12-13T22:14:51.707Z,37.90
2022-12-13T22:17:24.927Z,38.00
2022-12-13T22:22:25.707Z,38.10
2022-12-13T22:32:23.568Z,38.20
2022-12-13T22:34:51.597Z,38.50
2022-12-13T22:49:43.698Z,38.70
2022-12-13T22:52:12.123Z,49.40
2022-12-13T23:07:04.516Z,38.70
2022-12-13T23:09:32.860Z,53.20
2022-12-13T23:22:24.657Z,38.70
2022-12-13T23:27:23.452Z,38.70
2022-12-13T23:57:08.076Z,38.90
2022-12-13T23:59:36.293Z,49.90
